This is the latest recevied weather packets stored in our database for station/object HK4D-15. If no packets are shown the sender has not sent any weather packets the latest 10 day(s).
| Time | Temp. | Humidity | Pressure | Rain* | Wind** | Luminosity | Snow |
|---|---|---|---|---|---|---|---|
| 1777423709 | 17.22° C | 82% | 1015 hPa | 0 mm | - | - | - |
| 1777423048 | 17.22° C | 81% | 1015 hPa | 0 mm | - | - | - |
| 1777422388 | 17.22° C | 80% | 1014 hPa | 0 mm | - | - | - |
| 1777421727 | 17.22° C | 79% | 1014 hPa | 0 mm | - | - | - |
| 1777421067 | 17.22° C | 78% | 1014 hPa | 0 mm | - | - | - |
| 1777420406 | 17.22° C | 77% | 1014 hPa | 0 mm | - | - | - |
| 1777419746 | 17.22° C | 77% | 1014 hPa | 0 mm | - | - | - |
| 1777419084 | 17.22° C | 76% | 1014 hPa | 0 mm | - | - | - |
| 1777418423 | 17.22° C | 75% | 1013 hPa | 0 mm | - | - | - |
| 1777417763 | 17.78° C | 73% | 1013 hPa | 0 mm | - | - | - |
| 1777417102 | 18.33° C | 70% | 1013 hPa | 0 mm | - | - | - |
| 1777416441 | 18.33° C | 70% | 1013 hPa | 0 mm | - | - | - |
| 1777415780 | 18.33° C | 70% | 1012 hPa | 0 mm | - | - | - |
| 1777415115 | 18.33° C | 72% | 1011 hPa | 0 mm | - | - | - |
| 1777414452 | 18.33° C | 73% | 1011 hPa | 0 mm | - | - | - |
| 1777413791 | 18.89° C | 77% | 1011 hPa | 0 mm | - | - | - |
| 1777413130 | 18.89° C | 76% | 1011 hPa | 0 mm | - | - | - |
| 1777412470 | 18.89° C | 75% | 1011 hPa | 0 mm | - | - | - |
| 1777411809 | 19.44° C | 74% | 1011 hPa | 0 mm | - | - | - |
| 1777411147 | 20° C | 71% | 1011 hPa | 0.25 mm | - | - | - |
| 1777410487 | 21.11° C | 65% | 1011 hPa | 0.76 mm | - | - | - |
| 1777409826 | 21.11° C | 65% | 1011 hPa | 0 mm | - | - | - |
| 1777409166 | 21.11° C | 65% | 1011 hPa | 0 mm | - | - | - |
| 1777408504 | 21.11° C | 65% | 1011 hPa | 0 mm | - | - | - |
| 1777407844 | 21.11° C | 65% | 1011 hPa | 0 mm | - | - | - |
* Rain latest hour (hover to see other rain measurements)
** Current wind speed in m/s (hover to see current wind gust speed)